This is the latest recevied weather packets stored in our database for station/object YU4PTT-8. If no packets are shown the sender has not sent any weather packets the latest 10 day(s).
| Time | Temp. | Humidity | Pressure | Rain* | Wind** | Luminosity | Snow |
|---|---|---|---|---|---|---|---|
| 1777901601 | 17.78° C | 34% | 1007.6 hPa | 0 mm | 0.89 m/s, 135° | - | - |
| 1777899201 | 17.78° C | 35% | 1008.2 hPa | 0 mm | 1.79 m/s, 158° | - | - |
| 1777896800 | 17.78° C | 36% | 1008.5 hPa | 0 mm | 0.45 m/s, 112° | - | - |
| 1777894400 | 17.78° C | 38% | 1008.8 hPa | 0 mm | 0.45 m/s, 135° | - | - |
| 1777892061 | 17.22° C | 38% | 1008.9 hPa | 0 mm | 0 m/s | - | - |
| 1777889661 | 16.11° C | 42% | 1009.1 hPa | 0 mm | 0 m/s | - | - |
| 1777887261 | 16.11° C | 37% | 1009.3 hPa | 0 mm | 0 m/s | - | - |
| 1777884860 | 15.56° C | 39% | 1009.4 hPa | 0 mm | 0 m/s | - | - |
| 1777882460 | 15.56° C | 38% | 1008.8 hPa | 0 mm | 0 m/s | - | - |
| 1777880060 | 15° C | 40% | 1008.9 hPa | 0 mm | 1.34 m/s, 158° | - | - |
| 1777877660 | 13.89° C | 40% | 1008.8 hPa | 0 mm | 0 m/s | - | - |
| 1777875261 | 13.89° C | 39% | 1008.5 hPa | 0 mm | 1.34 m/s, 180° | - | - |
| 1777872860 | 12.22° C | 42% | 1008.2 hPa | 0 mm | 0.45 m/s, 158° | - | - |
| 1777870460 | 11.67° C | 43% | 1008.3 hPa | 0 mm | 0.89 m/s, 180° | - | - |
| 1777868060 | 9.44° C | 45% | 1007.9 hPa | 0 mm | 0 m/s | - | - |
| 1777865660 | 7.22° C | 51% | 1007.9 hPa | 0 mm | 0.45 m/s, 180° | - | - |
| 1777863260 | 6.67° C | 53% | 1007.8 hPa | 0 mm | 0 m/s | - | - |
| 1777860861 | 7.22° C | 50% | 1007.7 hPa | 0 mm | 0.45 m/s, 180° | - | - |
| 1777859060 | 7.22° C | 51% | 1007.8 hPa | 0 mm | 0.45 m/s, 180° | - | - |
| 1777856660 | 7.22° C | 51% | 1007.9 hPa | 0 mm | 0 m/s | - | - |
| 1777854260 | 7.22° C | 54% | 1008 hPa | 0 mm | 0.45 m/s, 158° | - | - |
| 1777851860 | 6.11° C | 56% | 1008.3 hPa | 0 mm | 0.45 m/s, 225° | - | - |
| 1777849460 | 6.67° C | 55% | 1008.3 hPa | 0 mm | 0.45 m/s, 158° | - | - |
| 1777847060 | 6.67° C | 60% | 1008.3 hPa | 0 mm | 0.45 m/s, 158° | - | - |
| 1777844690 | 6.11° C | 62% | 1008.6 hPa | 0 mm | 0 m/s | - | - |
* Rain latest hour (hover to see other rain measurements)
** Current wind speed in m/s (hover to see current wind gust speed)